createdAt,value
2023-09-23T00:01:32.236Z,9.50
2023-09-23T00:03:59.692Z,9.50
2023-09-23T00:06:27.112Z,9.50
2023-09-23T00:08:54.124Z,9.60
2023-09-23T00:11:21.103Z,9.60
2023-09-23T00:13:47.980Z,9.60
2023-09-23T00:16:18.040Z,9.60
2023-09-23T00:18:45.194Z,9.70
2023-09-23T00:21:13.864Z,9.70
2023-09-23T00:23:41.372Z,9.70
2023-09-23T00:26:08.721Z,9.70
2023-09-23T00:28:35.758Z,9.70
2023-09-23T00:31:13.114Z,9.70
2023-09-23T00:33:40.642Z,9.60
2023-09-23T00:36:11.605Z,9.60
2023-09-23T00:38:39.748Z,9.50
2023-09-23T00:41:07.699Z,9.50
2023-09-23T00:43:35.748Z,9.40
2023-09-23T00:46:07.042Z,9.30
2023-09-23T00:48:39.693Z,9.20
2023-09-23T00:51:08.819Z,9.00
2023-09-23T00:53:40.747Z,8.90
2023-09-23T00:56:10.438Z,8.70
2023-09-23T00:58:38.237Z,8.70
2023-09-23T01:01:06.643Z,8.50
2023-09-23T01:03:33.946Z,8.40
2023-09-23T01:06:15.582Z,8.20
2023-09-23T01:08:53.136Z,8.10
2023-09-23T01:11:20.264Z,7.90
2023-09-23T01:13:51.950Z,7.80
2023-09-23T01:16:20.282Z,7.70
2023-09-23T01:18:50.115Z,7.70
2023-09-23T01:21:17.300Z,7.60
2023-09-23T01:23:45.294Z,7.60
2023-09-23T01:26:15.528Z,7.50
2023-09-23T01:28:42.602Z,7.40
2023-09-23T01:31:09.837Z,7.40
2023-09-23T01:33:38.122Z,7.30
2023-09-23T01:36:06.581Z,7.40
2023-09-23T01:38:34.205Z,7.40
2023-09-23T01:41:03.575Z,7.40
2023-09-23T01:43:31.640Z,7.30
2023-09-23T01:46:04.822Z,7.40
2023-09-23T01:48:31.982Z,7.40
2023-09-23T01:51:02.152Z,7.40
2023-09-23T01:53:29.851Z,7.40
2023-09-23T01:55:57.130Z,7.50
2023-09-23T01:58:24.561Z,7.50
2023-09-23T02:00:56.966Z,7.50
2023-09-23T02:03:25.322Z,7.50
2023-09-23T02:05:52.691Z,7.40
2023-09-23T02:08:19.620Z,7.30
2023-09-23T02:10:47.196Z,7.20
2023-09-23T02:13:14.409Z,7.20
2023-09-23T02:15:41.274Z,7.20
2023-09-23T02:18:08.241Z,7.10
2023-09-23T02:20:35.855Z,7.00
2023-09-23T02:23:04.358Z,6.90
2023-09-23T02:25:31.294Z,6.90
2023-09-23T02:27:58.340Z,7.00
2023-09-23T02:30:26.198Z,7.20
2023-09-23T02:32:53.411Z,7.20
2023-09-23T02:35:20.489Z,7.10
2023-09-23T02:37:49.693Z,7.00
2023-09-23T02:40:17.334Z,7.00
2023-09-23T02:42:46.539Z,7.00
2023-09-23T02:45:15.328Z,7.00
2023-09-23T02:47:45.293Z,7.10
2023-09-23T02:50:16.856Z,7.10
2023-09-23T02:52:51.612Z,7.20
2023-09-23T02:55:21.929Z,7.10
2023-09-23T02:57:55.575Z,7.20
2023-09-23T03:00:24.661Z,7.20
2023-09-23T03:02:56.629Z,7.30
2023-09-23T03:05:30.347Z,7.20
2023-09-23T03:08:02.167Z,7.20
2023-09-23T03:10:35.519Z,7.30
2023-09-23T03:13:09.176Z,7.30
2023-09-23T03:15:49.763Z,7.40
2023-09-23T03:18:18.834Z,7.50
2023-09-23T03:20:45.936Z,7.50
2023-09-23T03:23:13.521Z,7.40
2023-09-23T03:25:45.952Z,7.30
2023-09-23T03:28:17.109Z,7.10
2023-09-23T03:30:49.491Z,7.20
2023-09-23T03:33:20.217Z,7.30
2023-09-23T03:35:48.642Z,7.30
2023-09-23T03:38:16.603Z,7.40
2023-09-23T03:41:12.991Z,7.30
2023-09-23T03:43:40.643Z,7.30
2023-09-23T03:46:17.600Z,7.30
2023-09-23T03:48:45.153Z,7.30
2023-09-23T03:51:15.677Z,7.10
2023-09-23T03:53:44.906Z,7.10
2023-09-23T03:56:11.992Z,7.20
2023-09-23T03:58:39.927Z,7.20
2023-09-23T04:01:11.579Z,7.00
2023-09-23T04:03:38.518Z,6.90
2023-09-23T04:06:06.580Z,7.00
2023-09-23T04:08:33.435Z,7.10
2023-09-23T04:11:06.932Z,7.10
2023-09-23T04:13:34.292Z,7.10
2023-09-23T04:16:02.010Z,7.10
2023-09-23T04:18:29.778Z,7.10
2023-09-23T04:20:56.965Z,7.10
2023-09-23T04:23:23.993Z,7.10
2023-09-23T04:25:51.464Z,7.00
2023-09-23T04:28:19.521Z,6.90
2023-09-23T04:30:46.877Z,6.90
2023-09-23T04:33:13.872Z,7.10
2023-09-23T04:35:41.468Z,7.20
2023-09-23T04:38:08.460Z,7.20
2023-09-23T04:40:35.671Z,7.30
2023-09-23T04:43:05.490Z,7.30
2023-09-23T04:45:32.411Z,7.30
2023-09-23T04:48:02.201Z,7.30
2023-09-23T04:50:29.291Z,7.30
2023-09-23T04:52:56.259Z,7.40
2023-09-23T04:55:23.463Z,7.30
2023-09-23T04:57:50.353Z,7.20
2023-09-23T05:00:17.895Z,7.10
2023-09-23T05:02:44.953Z,7.00
2023-09-23T05:05:13.137Z,7.00
2023-09-23T05:07:40.305Z,7.10
2023-09-23T05:10:08.320Z,7.10
2023-09-23T05:12:35.310Z,7.10
2023-09-23T05:15:02.408Z,7.20
2023-09-23T05:17:29.783Z,7.20
2023-09-23T05:19:56.823Z,7.20
2023-09-23T05:22:23.820Z,7.20
2023-09-23T05:24:57.857Z,7.20
2023-09-23T05:27:25.848Z,7.20
2023-09-23T05:29:53.222Z,7.30
2023-09-23T05:32:21.777Z,7.30
2023-09-23T05:34:52.761Z,7.70
2023-09-23T05:37:20.311Z,7.30
2023-09-23T05:39:47.382Z,7.40
2023-09-23T05:42:15.134Z,7.40
2023-09-23T05:44:42.440Z,7.40
2023-09-23T05:47:10.406Z,7.40
2023-09-23T05:49:38.047Z,8.20
2023-09-23T05:52:05.438Z,8.90
2023-09-23T05:54:32.894Z,9.10
2023-09-23T05:56:59.767Z,9.00
2023-09-23T05:59:26.858Z,8.80
2023-09-23T06:01:53.741Z,8.40
2023-09-23T06:04:20.653Z,8.40
2023-09-23T06:06:47.710Z,8.00
2023-09-23T06:09:15.936Z,7.90
2023-09-23T06:11:44.610Z,7.90
2023-09-23T06:14:12.932Z,7.90
2023-09-23T06:16:40.038Z,8.00
2023-09-23T06:19:08.278Z,8.10
2023-09-23T06:21:36.600Z,8.10
2023-09-23T06:24:03.854Z,8.10
2023-09-23T06:26:30.895Z,8.30
2023-09-23T06:28:58.178Z,8.30
2023-09-23T06:31:25.262Z,8.40
2023-09-23T06:33:52.166Z,8.40
2023-09-23T06:36:19.198Z,8.40
2023-09-23T06:38:46.017Z,8.50
2023-09-23T06:41:12.876Z,8.60
2023-09-23T06:43:39.746Z,8.70
2023-09-23T06:46:07.112Z,8.80
2023-09-23T06:48:34.815Z,9.00
2023-09-23T06:51:03.517Z,9.10
2023-09-23T06:53:31.156Z,9.30
2023-09-23T06:55:58.690Z,9.40
2023-09-23T06:58:25.626Z,9.50
2023-09-23T07:00:52.464Z,9.70
2023-09-23T07:03:19.421Z,9.90
2023-09-23T07:05:47.462Z,10.00
2023-09-23T07:08:15.665Z,10.00
2023-09-23T07:10:42.593Z,10.20
2023-09-23T07:13:12.875Z,10.40
2023-09-23T07:15:41.788Z,10.50
2023-09-23T07:18:09.564Z,10.70
2023-09-23T07:20:36.961Z,10.50
2023-09-23T07:23:04.295Z,10.50
2023-09-23T07:25:31.347Z,10.70
2023-09-23T07:28:01.321Z,10.70
2023-09-23T07:30:28.144Z,10.80
2023-09-23T07:32:55.070Z,11.10
2023-09-23T07:35:22.058Z,11.40
2023-09-23T07:37:48.942Z,11.50
2023-09-23T07:40:16.550Z,11.50
2023-09-23T07:42:43.415Z,11.60
2023-09-23T07:45:10.865Z,11.80
2023-09-23T07:47:37.997Z,11.80
2023-09-23T07:50:05.342Z,12.00
2023-09-23T07:52:35.775Z,12.10
2023-09-23T07:55:03.537Z,11.80
2023-09-23T07:57:30.331Z,11.80
2023-09-23T07:59:57.415Z,11.80
2023-09-23T08:02:24.480Z,12.00
2023-09-23T08:04:51.499Z,12.10
2023-09-23T08:07:18.657Z,11.90
2023-09-23T08:09:45.511Z,11.90
2023-09-23T08:12:12.447Z,12.20
2023-09-23T08:14:39.386Z,12.20
2023-09-23T08:17:06.231Z,12.40
2023-09-23T08:19:33.096Z,12.50
2023-09-23T08:22:00.217Z,12.40
2023-09-23T08:24:27.018Z,12.40
2023-09-23T08:26:54.543Z,12.60
2023-09-23T08:29:21.581Z,12.60
2023-09-23T08:31:48.626Z,12.60
2023-09-23T08:34:15.544Z,12.80
2023-09-23T08:36:42.344Z,13.60
2023-09-23T08:39:10.993Z,14.60
2023-09-23T08:41:38.381Z,15.40
2023-09-23T08:44:09.233Z,15.80
2023-09-23T08:46:36.659Z,15.50
2023-09-23T08:49:05.452Z,15.70
2023-09-23T08:51:32.935Z,16.20
2023-09-23T08:53:59.796Z,16.60
2023-09-23T08:56:27.003Z,17.10
2023-09-23T08:58:53.958Z,17.20
2023-09-23T09:01:20.961Z,16.90
2023-09-23T09:03:49.454Z,17.50
2023-09-23T09:06:18.040Z,18.10
2023-09-23T09:08:45.288Z,18.70
2023-09-23T09:11:13.221Z,19.00
2023-09-23T09:13:40.209Z,19.50
2023-09-23T09:16:07.904Z,20.10
2023-09-23T09:18:34.871Z,19.40
2023-09-23T09:21:02.648Z,19.40
2023-09-23T09:23:34.124Z,19.30
2023-09-23T09:26:01.143Z,19.00
2023-09-23T09:28:28.223Z,19.50
2023-09-23T09:31:00.900Z,19.00
2023-09-23T09:33:30.530Z,19.40
2023-09-23T09:35:57.772Z,18.30
2023-09-23T09:38:29.027Z,18.70
2023-09-23T09:41:04.263Z,18.50
2023-09-23T09:43:34.978Z,19.00
2023-09-23T09:46:09.848Z,20.20
2023-09-23T09:48:42.707Z,19.60
2023-09-23T09:51:10.590Z,19.50
2023-09-23T09:53:39.042Z,19.50
2023-09-23T09:56:07.326Z,18.80
2023-09-23T09:58:41.840Z,18.10
2023-09-23T10:01:14.124Z,18.20
2023-09-23T10:03:46.950Z,17.30
2023-09-23T10:06:22.817Z,17.30
2023-09-23T10:08:50.654Z,17.40
2023-09-23T10:11:18.273Z,17.50
2023-09-23T10:13:45.352Z,17.20
2023-09-23T10:16:14.453Z,16.60
2023-09-23T10:18:42.461Z,16.00
2023-09-23T10:21:22.435Z,15.50
2023-09-23T10:23:52.320Z,15.20
2023-09-23T10:26:21.010Z,14.90
2023-09-23T10:29:02.261Z,14.90
2023-09-23T10:31:32.031Z,14.90
2023-09-23T10:34:04.427Z,14.80
2023-09-23T10:36:31.267Z,14.90
2023-09-23T10:38:58.811Z,15.70
2023-09-23T10:41:36.577Z,16.00
2023-09-23T10:44:04.475Z,16.70
2023-09-23T10:46:33.577Z,16.70
2023-09-23T10:49:01.299Z,17.50
2023-09-23T10:51:28.862Z,17.70
2023-09-23T10:53:57.101Z,17.90
2023-09-23T10:56:26.379Z,18.40
2023-09-23T10:58:54.038Z,18.30
2023-09-23T11:01:23.800Z,18.10
2023-09-23T11:03:52.504Z,17.40
2023-09-23T11:06:19.630Z,16.80
2023-09-23T11:08:46.747Z,16.60
2023-09-23T11:11:14.431Z,16.50
2023-09-23T11:13:41.760Z,16.50
2023-09-23T11:16:10.410Z,17.20
2023-09-23T11:18:38.470Z,17.80
2023-09-23T11:21:06.201Z,17.40
2023-09-23T11:23:35.086Z,17.80
2023-09-23T11:26:02.434Z,18.40
2023-09-23T11:28:29.552Z,19.20
2023-09-23T11:30:57.545Z,19.50
2023-09-23T11:33:26.228Z,18.80
2023-09-23T11:35:55.864Z,18.60
2023-09-23T11:38:22.920Z,18.30
2023-09-23T11:40:50.089Z,18.10
2023-09-23T11:43:17.057Z,18.30
2023-09-23T11:45:44.570Z,18.30
2023-09-23T11:48:11.742Z,17.50
2023-09-23T11:50:39.577Z,17.60
2023-09-23T11:53:06.885Z,17.60
2023-09-23T11:55:34.645Z,17.70
2023-09-23T11:58:02.077Z,19.20
2023-09-23T12:00:30.335Z,20.00
2023-09-23T12:02:57.980Z,21.30
2023-09-23T12:05:31.230Z,22.00
2023-09-23T12:08:02.206Z,22.40
2023-09-23T12:10:30.471Z,21.00
2023-09-23T12:13:04.844Z,21.20
2023-09-23T12:15:33.254Z,21.70
2023-09-23T12:18:00.327Z,21.50
2023-09-23T12:20:28.079Z,20.70
2023-09-23T12:22:57.299Z,19.30
2023-09-23T12:25:24.227Z,18.80
2023-09-23T12:27:51.010Z,18.20
2023-09-23T12:30:19.236Z,18.10
2023-09-23T12:32:46.890Z,17.90
2023-09-23T12:35:14.158Z,17.40
2023-09-23T12:37:41.554Z,17.40
2023-09-23T12:40:09.136Z,17.40
2023-09-23T12:42:36.120Z,17.70
2023-09-23T12:45:06.185Z,18.60
2023-09-23T12:47:48.793Z,19.30
2023-09-23T12:50:20.432Z,19.20
2023-09-23T12:52:47.835Z,19.60
2023-09-23T12:55:14.926Z,20.00
2023-09-23T12:57:41.808Z,19.50
2023-09-23T13:00:09.340Z,19.60
2023-09-23T13:02:36.519Z,19.40
2023-09-23T13:05:04.314Z,18.70
2023-09-23T13:07:31.191Z,18.50
2023-09-23T13:09:58.075Z,18.70
2023-09-23T13:12:24.918Z,19.10
2023-09-23T13:14:52.338Z,19.30
2023-09-23T13:17:19.182Z,19.30
2023-09-23T13:19:46.010Z,19.30
2023-09-23T13:22:12.916Z,19.50
2023-09-23T13:24:39.928Z,19.70
2023-09-23T13:27:07.352Z,19.80
2023-09-23T13:29:34.524Z,19.60
2023-09-23T13:32:01.763Z,19.50
2023-09-23T13:34:29.190Z,19.40
2023-09-23T13:36:56.019Z,18.90
2023-09-23T13:39:23.083Z,18.90
2023-09-23T13:41:50.134Z,18.60
2023-09-23T13:44:17.225Z,18.40
2023-09-23T13:46:44.213Z,18.10
2023-09-23T13:49:11.740Z,17.70
2023-09-23T13:51:38.639Z,17.50
2023-09-23T13:54:05.904Z,17.60
2023-09-23T13:56:32.878Z,18.40
2023-09-23T13:58:59.799Z,19.30
2023-09-23T14:01:26.872Z,20.20
2023-09-23T14:03:53.959Z,20.50
2023-09-23T14:06:20.970Z,19.80
2023-09-23T14:08:48.029Z,20.40
2023-09-23T14:11:15.230Z,20.50
2023-09-23T14:13:42.573Z,20.30
2023-09-23T14:16:09.501Z,19.60
2023-09-23T14:18:36.456Z,19.90
2023-09-23T14:21:03.658Z,20.00
2023-09-23T14:23:31.392Z,20.50
2023-09-23T14:25:58.325Z,20.30
2023-09-23T14:28:25.860Z,19.60
2023-09-23T14:30:52.907Z,19.10
2023-09-23T14:33:19.785Z,18.40
2023-09-23T14:35:46.728Z,18.30
2023-09-23T14:38:13.814Z,18.30
2023-09-23T14:40:41.101Z,18.20
2023-09-23T14:43:08.069Z,18.10
2023-09-23T14:45:34.925Z,18.20
2023-09-23T14:48:03.189Z,17.80
2023-09-23T14:50:30.313Z,18.00
2023-09-23T14:52:57.301Z,17.80
2023-09-23T14:55:24.195Z,17.70
2023-09-23T14:57:51.132Z,17.30
2023-09-23T15:00:18.164Z,17.20
2023-09-23T15:02:45.470Z,16.80
2023-09-23T15:05:12.664Z,16.60
2023-09-23T15:07:39.955Z,16.60
2023-09-23T15:10:12.009Z,16.60
2023-09-23T15:12:38.946Z,16.40
2023-09-23T15:15:06.538Z,16.30
2023-09-23T15:17:33.704Z,16.20
2023-09-23T15:20:00.669Z,16.10
2023-09-23T15:22:27.994Z,15.90
2023-09-23T15:24:55.022Z,15.80
2023-09-23T15:27:23.593Z,15.60
2023-09-23T15:29:51.050Z,15.60
2023-09-23T15:32:18.017Z,15.50
2023-09-23T15:34:45.039Z,15.30
2023-09-23T15:37:11.904Z,15.00
2023-09-23T15:39:38.801Z,14.90
2023-09-23T15:42:05.715Z,14.60
2023-09-23T15:44:32.775Z,14.30
2023-09-23T15:46:59.854Z,14.30
2023-09-23T15:49:28.053Z,14.40
2023-09-23T15:51:55.086Z,14.40
2023-09-23T15:54:22.136Z,14.50
2023-09-23T15:56:49.286Z,14.50
2023-09-23T15:59:16.331Z,14.30
2023-09-23T16:01:43.289Z,14.10
2023-09-23T16:04:10.247Z,14.20
2023-09-23T16:06:40.845Z,14.00
2023-09-23T16:09:13.766Z,13.90
2023-09-23T16:11:40.882Z,13.90
2023-09-23T16:14:08.472Z,13.80
2023-09-23T16:16:35.515Z,13.80
2023-09-23T16:19:02.654Z,13.60
2023-09-23T16:21:29.534Z,13.50
2023-09-23T16:23:57.495Z,13.30
2023-09-23T16:26:24.483Z,13.20
2023-09-23T16:28:51.352Z,13.10
2023-09-23T16:31:18.234Z,13.00
2023-09-23T16:33:45.674Z,12.80
2023-09-23T16:36:13.945Z,12.70
2023-09-23T16:38:40.964Z,12.60
2023-09-23T16:41:08.410Z,12.40
2023-09-23T16:43:35.527Z,12.30
2023-09-23T16:46:02.405Z,12.20
2023-09-23T16:48:29.484Z,12.10
2023-09-23T16:50:56.341Z,12.10
2023-09-23T16:53:23.432Z,12.10
2023-09-23T16:55:50.274Z,12.00
2023-09-23T16:58:17.159Z,11.90
2023-09-23T17:00:44.141Z,11.80
2023-09-23T17:03:11.456Z,11.70
2023-09-23T17:05:39.033Z,11.60
2023-09-23T17:08:07.928Z,11.60
2023-09-23T17:10:35.824Z,11.60
2023-09-23T17:13:02.813Z,11.60
2023-09-23T17:15:29.900Z,11.40
2023-09-23T17:17:56.823Z,11.30
2023-09-23T17:20:24.747Z,11.20
2023-09-23T17:22:51.916Z,11.10
2023-09-23T17:25:18.814Z,11.00
2023-09-23T17:27:45.775Z,10.90
2023-09-23T17:30:13.463Z,10.90
2023-09-23T17:32:40.916Z,10.90
2023-09-23T17:35:08.181Z,10.80
2023-09-23T17:37:35.033Z,10.70
2023-09-23T17:40:01.932Z,10.70
2023-09-23T17:42:28.785Z,10.60
2023-09-23T17:44:55.873Z,10.50
2023-09-23T17:47:22.849Z,10.50
2023-09-23T17:49:49.745Z,10.40
2023-09-23T17:52:16.651Z,10.40
2023-09-23T17:54:47.300Z,10.30
2023-09-23T17:57:14.173Z,10.30
2023-09-23T17:59:41.176Z,10.20
2023-09-23T18:02:09.818Z,10.10
2023-09-23T18:04:37.490Z,10.00
2023-09-23T18:07:05.576Z,9.90
2023-09-23T18:09:32.729Z,9.90
2023-09-23T18:11:59.819Z,9.90
2023-09-23T18:14:26.873Z,9.90
2023-09-23T18:16:54.239Z,9.90
2023-09-23T18:19:21.169Z,9.90
2023-09-23T18:21:48.280Z,9.80
2023-09-23T18:24:15.275Z,9.80
2023-09-23T18:26:42.235Z,9.70
2023-09-23T18:29:09.104Z,9.70
2023-09-23T18:31:36.016Z,9.60
2023-09-23T18:34:04.428Z,9.50
2023-09-23T18:36:31.441Z,9.40
2023-09-23T18:38:58.553Z,9.40
2023-09-23T18:41:25.465Z,9.40
2023-09-23T18:43:52.405Z,9.40
2023-09-23T18:46:20.620Z,9.40
2023-09-23T18:48:48.000Z,9.30
2023-09-23T18:51:14.987Z,9.30
2023-09-23T18:53:41.989Z,9.20
2023-09-23T18:56:08.955Z,9.20
2023-09-23T18:58:35.887Z,9.10
2023-09-23T19:01:04.474Z,9.00
2023-09-23T19:03:31.875Z,8.90
2023-09-23T19:05:59.034Z,8.80
2023-09-23T19:08:26.191Z,8.80
2023-09-23T19:10:53.189Z,8.80
2023-09-23T19:13:20.183Z,8.80
2023-09-23T19:15:48.965Z,8.70
2023-09-23T19:18:16.813Z,8.70
2023-09-23T19:20:44.168Z,8.60
2023-09-23T19:23:15.007Z,8.60
2023-09-23T19:25:42.122Z,8.50
2023-09-23T19:28:09.116Z,8.50
2023-09-23T19:30:36.198Z,8.50
2023-09-23T19:33:03.160Z,8.50
2023-09-23T19:35:30.765Z,8.50
2023-09-23T19:37:57.730Z,8.40
2023-09-23T19:40:24.602Z,8.50
2023-09-23T19:42:51.563Z,8.60
2023-09-23T19:45:18.792Z,8.60
2023-09-23T19:47:47.040Z,8.60
2023-09-23T19:50:14.446Z,8.70
2023-09-23T19:52:41.453Z,8.80
2023-09-23T19:55:09.344Z,9.10
2023-09-23T19:57:36.638Z,9.30
2023-09-23T20:00:05.224Z,9.40
2023-09-23T20:02:38.765Z,9.20
2023-09-23T20:05:07.505Z,9.00
2023-09-23T20:07:36.158Z,9.00
2023-09-23T20:10:07.181Z,9.00
2023-09-23T20:12:37.598Z,9.00
2023-09-23T20:15:07.474Z,8.90
2023-09-23T20:17:35.703Z,8.90
2023-09-23T20:20:06.435Z,8.80
2023-09-23T20:22:33.288Z,8.60
2023-09-23T20:25:00.338Z,8.50
2023-09-23T20:27:27.970Z,8.40
2023-09-23T20:30:06.637Z,8.30
2023-09-23T20:32:38.812Z,8.20
2023-09-23T20:35:08.329Z,8.10
2023-09-23T20:37:42.740Z,8.10
2023-09-23T20:40:16.962Z,8.00
2023-09-23T20:42:44.839Z,8.00
2023-09-23T20:45:13.701Z,7.90
2023-09-23T20:47:41.180Z,7.90
2023-09-23T20:50:10.319Z,8.00
2023-09-23T20:52:38.722Z,7.90
2023-09-23T20:55:09.130Z,7.80
2023-09-23T20:57:36.253Z,7.80
2023-09-23T21:00:06.340Z,8.00
2023-09-23T21:02:33.431Z,8.00
2023-09-23T21:05:04.941Z,7.90
2023-09-23T21:07:32.029Z,7.80
2023-09-23T21:10:00.165Z,7.70
2023-09-23T21:12:27.220Z,7.50
2023-09-23T21:14:54.085Z,7.40
2023-09-23T21:17:20.969Z,7.30
2023-09-23T21:19:47.858Z,7.30
2023-09-23T21:22:14.755Z,7.30
2023-09-23T21:24:43.313Z,7.30
2023-09-23T21:27:12.826Z,7.20
2023-09-23T21:29:40.472Z,7.20
2023-09-23T21:32:07.401Z,7.10
2023-09-23T21:34:34.286Z,7.20
2023-09-23T21:37:01.262Z,7.20
2023-09-23T21:39:28.282Z,7.20
2023-09-23T21:41:55.444Z,7.20
2023-09-23T21:44:25.380Z,7.40
2023-09-23T21:46:52.508Z,7.40
2023-09-23T21:49:19.334Z,7.30
2023-09-23T21:51:46.170Z,7.30
2023-09-23T21:54:14.196Z,7.20
2023-09-23T21:56:44.165Z,7.00
2023-09-23T21:59:12.230Z,7.10
2023-09-23T22:01:39.439Z,7.20
2023-09-23T22:04:09.742Z,7.20
2023-09-23T22:06:37.283Z,7.10
2023-09-23T22:09:04.515Z,7.00
2023-09-23T22:11:34.350Z,7.10
2023-09-23T22:14:03.394Z,7.10
2023-09-23T22:16:30.258Z,7.10
2023-09-23T22:18:57.627Z,7.20
2023-09-23T22:21:24.444Z,7.20
2023-09-23T22:23:51.947Z,7.20
2023-09-23T22:26:18.872Z,7.10
2023-09-23T22:28:46.029Z,7.10
2023-09-23T22:31:16.171Z,7.00
2023-09-23T22:33:43.332Z,7.00
2023-09-23T22:36:12.156Z,7.00
2023-09-23T22:38:39.136Z,6.90
2023-09-23T22:41:06.065Z,6.80
2023-09-23T22:43:33.093Z,6.80
2023-09-23T22:46:00.819Z,6.80
2023-09-23T22:48:28.598Z,6.80
2023-09-23T22:50:55.955Z,6.90
2023-09-23T22:53:23.790Z,7.00
2023-09-23T22:55:50.995Z,6.90
2023-09-23T22:58:17.837Z,6.90
2023-09-23T23:00:45.241Z,7.10
2023-09-23T23:03:14.711Z,7.10
2023-09-23T23:05:41.911Z,6.90
2023-09-23T23:08:09.378Z,6.80
2023-09-23T23:10:36.444Z,6.70
2023-09-23T23:13:06.031Z,6.60
2023-09-23T23:15:37.031Z,6.50
2023-09-23T23:18:04.993Z,6.40
2023-09-23T23:20:35.143Z,6.40
2023-09-23T23:23:02.111Z,6.40
2023-09-23T23:25:29.445Z,6.40
2023-09-23T23:27:56.262Z,6.40
2023-09-23T23:30:23.288Z,6.30
2023-09-23T23:32:50.522Z,6.30
2023-09-23T23:35:23.330Z,6.30
2023-09-23T23:37:51.005Z,6.30
2023-09-23T23:40:22.562Z,6.20
2023-09-23T23:42:53.164Z,6.10
2023-09-23T23:45:22.044Z,6.20
2023-09-23T23:47:54.406Z,6.40
2023-09-23T23:50:21.573Z,6.40
2023-09-23T23:52:50.214Z,6.40
2023-09-23T23:55:17.921Z,6.30
2023-09-23T23:57:46.078Z,6.20
